Dixon, California
Current Conditions -  °F | °C
As of 11:55 PM on Sunday 21 Dec 2014 (Local Time) from KEDU Reporting Station
Clear Clear  
Wind Chill: 55°   Ceiling: Unl
Heat Index: 55°   Visibility: 3mi
Dew Point: 54°   Wind: 3mph
Humidity: 94%   Direction: 320°NW
Pressure: 30.28"   Gusts: NA
Location:  38.45°N, 121.81°W
Report Text: KEDU 220755Z AUTO 32003KT 3SM CLR 13/12 A3028 RMK AO1
Loading
Personal Weather Stations






























Interactive Weather Map New forecast layout! Learn more

10-Day Weather Forecast

Advertisements
Track Severe Weather on mobile